createdAt,value
2023-01-20T00:01:22.348Z,-0.87
2023-01-20T00:03:48.983Z,-0.91
2023-01-20T00:06:15.482Z,-0.95
2023-01-20T00:08:42.335Z,-0.99
2023-01-20T00:11:12.204Z,-1.00
2023-01-20T00:13:39.463Z,-0.99
2023-01-20T00:16:08.047Z,-1.02
2023-01-20T00:18:35.143Z,-1.04
2023-01-20T00:21:05.919Z,-1.04
2023-01-20T00:23:32.708Z,-1.02
2023-01-20T00:25:59.444Z,-1.00
2023-01-20T00:28:26.047Z,-0.99
2023-01-20T00:30:52.478Z,-0.96
2023-01-20T00:33:18.963Z,-0.88
2023-01-20T00:35:45.387Z,-0.81
2023-01-20T00:38:11.851Z,-0.77
2023-01-20T00:40:38.269Z,-0.72
2023-01-20T00:43:04.662Z,-0.69
2023-01-20T00:45:31.078Z,-0.69
2023-01-20T00:47:57.518Z,-0.68
2023-01-20T00:50:23.979Z,-0.67
2023-01-20T00:52:50.391Z,-0.70
2023-01-20T00:55:16.817Z,-0.71
2023-01-20T00:57:43.245Z,-0.74
2023-01-20T01:00:10.260Z,-0.76
2023-01-20T01:02:40.111Z,-0.74
2023-01-20T01:05:06.838Z,-0.71
2023-01-20T01:07:33.320Z,-0.69
2023-01-20T01:09:59.732Z,-0.69
2023-01-20T01:12:26.332Z,-0.67
2023-01-20T01:14:52.766Z,-0.64
2023-01-20T01:17:19.440Z,-0.62
2023-01-20T01:19:45.868Z,-0.62
2023-01-20T01:22:12.293Z,-0.60
2023-01-20T01:24:38.897Z,-0.55
2023-01-20T01:27:05.377Z,-0.53
2023-01-20T01:29:31.804Z,-0.51
2023-01-20T01:31:58.227Z,-0.47
2023-01-20T01:34:24.736Z,-0.44
2023-01-20T01:36:51.194Z,-0.43
2023-01-20T01:39:17.647Z,-0.41
2023-01-20T01:41:44.056Z,-0.40
2023-01-20T01:44:12.772Z,-0.39
2023-01-20T01:46:41.335Z,-0.39
2023-01-20T01:49:20.071Z,-0.39
2023-01-20T01:52:08.942Z,-0.38
2023-01-20T01:54:39.877Z,-0.35
2023-01-20T01:57:07.849Z,-0.33
2023-01-20T01:59:35.086Z,-0.33
2023-01-20T02:02:01.783Z,-0.31
2023-01-20T02:04:28.463Z,-0.31
2023-01-20T02:07:09.281Z,-0.29
2023-01-20T02:09:36.151Z,-0.27
2023-01-20T02:12:06.370Z,-0.27
2023-01-20T02:14:42.607Z,-0.27
2023-01-20T02:17:18.329Z,-0.26
2023-01-20T02:20:17.676Z,-0.24
2023-01-20T02:22:56.181Z,-0.23
2023-01-20T02:25:28.547Z,-0.23
2023-01-20T02:28:28.864Z,-0.22
2023-01-20T02:31:07.480Z,-0.19
2023-01-20T02:33:36.828Z,-0.19
2023-01-20T02:36:19.511Z,-0.17
2023-01-20T02:39:01.144Z,-0.16
2023-01-20T02:41:41.806Z,-0.17
2023-01-20T02:44:16.419Z,-0.16
2023-01-20T02:47:21.974Z,-0.14
2023-01-20T02:50:13.059Z,-0.14
2023-01-20T02:52:47.615Z,-0.14
2023-01-20T02:55:22.265Z,-0.14
2023-01-20T02:57:55.813Z,-0.15
2023-01-20T03:00:31.664Z,-0.14
2023-01-20T03:03:01.905Z,-0.15
2023-01-20T03:05:35.027Z,-0.14
2023-01-20T03:08:06.450Z,-0.13
2023-01-20T03:10:35.495Z,-0.14
2023-01-20T03:13:21.260Z,-0.14
2023-01-20T03:16:01.335Z,-0.17
2023-01-20T03:18:33.809Z,-0.18
2023-01-20T03:21:02.435Z,-0.17
2023-01-20T03:23:33.310Z,-0.17
2023-01-20T03:26:02.981Z,-0.19
2023-01-20T03:28:29.416Z,-0.17
2023-01-20T03:30:57.461Z,-0.17
2023-01-20T03:33:24.731Z,-0.17
2023-01-20T03:35:52.261Z,-0.14
2023-01-20T03:38:18.784Z,-0.15
2023-01-20T03:41:29.840Z,-0.15
2023-01-20T03:44:11.463Z,-0.13
2023-01-20T03:47:31.534Z,-0.14
2023-01-20T03:50:10.040Z,-0.13
2023-01-20T03:52:47.483Z,-0.14
2023-01-20T03:55:26.456Z,-0.16
2023-01-20T03:58:04.612Z,-0.13
2023-01-20T04:00:37.869Z,-0.15
2023-01-20T04:03:08.782Z,-0.14
2023-01-20T04:05:37.431Z,-0.17
2023-01-20T04:08:08.710Z,-0.17
2023-01-20T04:10:38.720Z,-0.18
2023-01-20T04:13:05.395Z,-0.19
2023-01-20T04:15:42.055Z,-0.19
2023-01-20T04:18:16.903Z,-0.19
2023-01-20T04:20:46.502Z,-0.19
2023-01-20T04:23:20.140Z,-0.18
2023-01-20T04:25:46.847Z,-0.17
2023-01-20T04:28:13.242Z,-0.18
2023-01-20T04:30:39.690Z,-0.16
2023-01-20T04:33:06.248Z,-0.14
2023-01-20T04:35:32.660Z,-0.15
2023-01-20T04:37:59.202Z,-0.15
2023-01-20T04:40:25.664Z,-0.17
2023-01-20T04:42:52.105Z,-0.17
2023-01-20T04:45:18.728Z,-0.19
2023-01-20T04:47:45.120Z,-0.22
2023-01-20T04:50:13.819Z,-0.21
2023-01-20T04:52:40.398Z,-0.24
2023-01-20T04:55:07.307Z,-0.25
2023-01-20T04:57:33.752Z,-0.26
2023-01-20T05:00:00.200Z,-0.27
2023-01-20T05:02:27.017Z,-0.27
2023-01-20T05:04:53.485Z,-0.27
2023-01-20T05:07:19.885Z,-0.26
2023-01-20T05:09:46.289Z,-0.26
2023-01-20T05:12:12.817Z,-0.27
2023-01-20T05:14:39.215Z,-0.30
2023-01-20T05:17:05.663Z,-0.30
2023-01-20T05:19:32.088Z,-0.30
2023-01-20T05:21:59.864Z,-0.31
2023-01-20T05:24:26.305Z,-0.30
2023-01-20T05:26:52.762Z,-0.31
2023-01-20T05:29:19.278Z,-0.32
2023-01-20T05:31:45.719Z,-0.32
2023-01-20T05:34:12.248Z,-0.32
2023-01-20T05:36:38.809Z,-0.31
2023-01-20T05:39:05.284Z,-0.28
2023-01-20T05:41:32.387Z,-0.29
2023-01-20T05:43:58.827Z,-0.28
2023-01-20T05:46:25.325Z,-0.26
2023-01-20T05:48:51.772Z,-0.26
2023-01-20T05:51:18.182Z,-0.26
2023-01-20T05:53:44.784Z,-0.28
2023-01-20T05:56:15.691Z,-0.26
2023-01-20T05:58:42.429Z,-0.26
2023-01-20T06:01:11.857Z,-0.26
2023-01-20T06:03:38.418Z,-0.26
2023-01-20T06:06:07.872Z,-0.24
2023-01-20T06:08:35.258Z,-0.22
2023-01-20T06:11:19.745Z,-0.21
2023-01-20T06:13:49.366Z,-0.20
2023-01-20T06:16:20.029Z,-0.18
2023-01-20T06:18:46.573Z,-0.16
2023-01-20T06:21:12.994Z,-0.17
2023-01-20T06:23:39.745Z,-0.15
2023-01-20T06:26:12.608Z,-0.15
2023-01-20T06:28:39.246Z,-0.15
2023-01-20T06:31:12.016Z,-0.14
2023-01-20T06:33:38.573Z,-0.16
2023-01-20T06:36:06.171Z,-0.16
2023-01-20T06:38:34.935Z,-0.19
2023-01-20T06:41:03.868Z,-0.17
2023-01-20T06:43:31.408Z,-0.21
2023-01-20T06:46:02.961Z,-0.21
2023-01-20T06:48:30.095Z,-0.24
2023-01-20T06:51:07.966Z,-0.24
2023-01-20T06:53:35.036Z,-0.25
2023-01-20T06:56:04.578Z,-0.26
2023-01-20T06:58:32.961Z,-0.25
2023-01-20T07:01:15.773Z,-0.26
2023-01-20T07:03:45.735Z,-0.24
2023-01-20T07:06:25.861Z,-0.24
2023-01-20T07:08:52.730Z,-0.22
2023-01-20T07:11:19.898Z,-0.22
2023-01-20T07:14:10.250Z,-0.24
2023-01-20T07:16:37.248Z,-0.24
2023-01-20T07:19:04.226Z,-0.25
2023-01-20T07:21:30.838Z,-0.26
2023-01-20T07:24:01.326Z,-0.25
2023-01-20T07:26:27.976Z,-0.24
2023-01-20T07:28:54.459Z,-0.25
2023-01-20T07:31:26.698Z,-0.26
2023-01-20T07:33:57.523Z,-0.24
2023-01-20T07:36:26.378Z,-0.24
2023-01-20T07:38:53.755Z,-0.24
2023-01-20T07:41:21.404Z,-0.23
2023-01-20T07:43:49.929Z,-0.22
2023-01-20T07:46:16.821Z,-0.23
2023-01-20T07:48:43.609Z,-0.23
2023-01-20T07:51:12.847Z,-0.23
2023-01-20T07:53:47.954Z,-0.23
2023-01-20T07:56:20.309Z,-0.23
2023-01-20T07:58:50.328Z,-0.21
2023-01-20T08:01:22.525Z,-0.22
2023-01-20T08:03:49.719Z,-0.21
2023-01-20T08:06:19.185Z,-0.20
2023-01-20T08:08:46.034Z,-0.19
2023-01-20T08:11:14.193Z,-0.16
2023-01-20T08:13:41.079Z,-0.15
2023-01-20T08:16:10.364Z,-0.12
2023-01-20T08:18:36.978Z,-0.11
2023-01-20T08:21:08.261Z,-0.10
2023-01-20T08:23:35.883Z,-0.08
2023-01-20T08:26:05.424Z,-0.07
2023-01-20T08:28:35.421Z,-0.05
2023-01-20T08:31:13.211Z,-0.04
2023-01-20T08:33:42.158Z,-0.02
2023-01-20T08:36:17.302Z,-0.02
2023-01-20T08:38:44.749Z,0.03
2023-01-20T08:41:15.668Z,0.03
2023-01-20T08:43:42.292Z,0.04
2023-01-20T08:46:11.925Z,0.07
2023-01-20T08:48:39.739Z,0.07
2023-01-20T08:51:08.660Z,0.10
2023-01-20T08:53:35.741Z,0.12
2023-01-20T08:56:03.276Z,0.13
2023-01-20T08:58:30.331Z,0.13
2023-01-20T09:00:56.827Z,0.14
2023-01-20T09:03:23.957Z,0.16
2023-01-20T09:05:50.822Z,0.16
2023-01-20T09:08:20.021Z,0.19
2023-01-20T09:10:46.700Z,0.20
2023-01-20T09:13:13.103Z,0.19
2023-01-20T09:15:39.530Z,0.19
2023-01-20T09:18:06.106Z,0.21
2023-01-20T09:20:32.519Z,0.22
2023-01-20T09:23:03.018Z,0.23
2023-01-20T09:25:29.641Z,0.23
2023-01-20T09:27:56.054Z,0.25
2023-01-20T09:30:22.441Z,0.26
2023-01-20T09:32:53.038Z,0.25
2023-01-20T09:35:19.654Z,0.25
2023-01-20T09:38:04.799Z,0.28
2023-01-20T09:41:02.081Z,0.30
2023-01-20T09:43:54.150Z,0.29
2023-01-20T09:47:11.093Z,0.30
2023-01-20T09:50:14.659Z,0.27
2023-01-20T09:53:00.438Z,0.27
2023-01-20T09:55:26.759Z,0.31
2023-01-20T09:58:08.246Z,0.30
2023-01-20T10:00:36.860Z,0.29
2023-01-20T10:03:22.347Z,0.30
2023-01-20T10:05:53.404Z,0.31
2023-01-20T10:08:32.342Z,0.32
2023-01-20T10:11:05.583Z,0.33
2023-01-20T10:13:51.573Z,0.34
2023-01-20T10:16:45.837Z,0.38
2023-01-20T10:19:29.659Z,0.38
2023-01-20T10:22:07.100Z,0.36
2023-01-20T10:24:47.340Z,0.39
2023-01-20T10:27:13.732Z,0.40
2023-01-20T10:29:56.784Z,0.44
2023-01-20T10:32:36.412Z,0.45
2023-01-20T10:35:15.504Z,0.50
2023-01-20T10:37:42.653Z,0.55
2023-01-20T10:40:27.719Z,0.59
2023-01-20T10:42:59.578Z,0.62
2023-01-20T10:45:42.755Z,0.58
2023-01-20T10:48:37.583Z,0.56
2023-01-20T10:51:25.920Z,0.51
2023-01-20T10:54:01.550Z,0.51
2023-01-20T10:56:41.763Z,0.47
2023-01-20T10:59:13.769Z,0.46
2023-01-20T11:01:41.414Z,0.44
2023-01-20T11:04:19.432Z,0.44
2023-01-20T11:06:54.505Z,0.41
2023-01-20T11:09:29.571Z,0.41
2023-01-20T11:11:58.265Z,0.40
2023-01-20T11:14:26.146Z,0.39
2023-01-20T11:17:04.447Z,0.39
2023-01-20T11:19:46.973Z,0.38
2023-01-20T11:22:20.604Z,0.36
2023-01-20T11:24:47.378Z,0.36
2023-01-20T11:27:21.358Z,0.39
2023-01-20T11:30:04.339Z,0.38
2023-01-20T11:32:37.245Z,0.43
2023-01-20T11:35:21.697Z,0.50
2023-01-20T11:37:48.469Z,0.59
2023-01-20T11:40:25.146Z,0.69
2023-01-20T11:42:53.355Z,0.78
2023-01-20T11:45:30.223Z,0.86
2023-01-20T11:48:16.471Z,0.97
2023-01-20T11:50:57.435Z,1.10
2023-01-20T11:53:26.518Z,1.20
2023-01-20T11:55:59.348Z,1.29
2023-01-20T11:58:47.559Z,1.37
2023-01-20T12:01:25.824Z,1.26
2023-01-20T12:04:21.862Z,1.07
2023-01-20T12:07:09.280Z,0.93
2023-01-20T12:09:40.104Z,0.82
2023-01-20T12:12:09.860Z,0.78
2023-01-20T12:14:47.175Z,0.82
2023-01-20T12:17:32.399Z,0.86
2023-01-20T12:20:05.494Z,0.87
2023-01-20T12:22:41.143Z,0.89
2023-01-20T12:25:19.873Z,0.95
2023-01-20T12:28:01.296Z,0.95
2023-01-20T12:30:37.850Z,0.95
2023-01-20T12:33:05.251Z,0.97
2023-01-20T12:35:46.187Z,0.95
2023-01-20T12:38:19.632Z,0.95
2023-01-20T12:40:52.604Z,0.93
2023-01-20T12:43:43.745Z,0.93
2023-01-20T12:46:32.245Z,0.99
2023-01-20T12:49:29.082Z,1.00
2023-01-20T12:52:09.368Z,1.03
2023-01-20T12:54:53.337Z,1.09
2023-01-20T12:57:41.444Z,1.09
2023-01-20T13:00:29.526Z,1.16
2023-01-20T13:03:14.517Z,1.14
2023-01-20T13:06:01.353Z,1.16
2023-01-20T13:09:05.884Z,1.12
2023-01-20T13:11:56.969Z,1.06
2023-01-20T13:17:43.497Z,1.05
2023-01-20T13:20:30.938Z,1.06
2023-01-20T13:23:04.201Z,1.09
2023-01-20T13:25:32.319Z,1.06
2023-01-20T13:27:59.222Z,1.04
2023-01-20T13:30:47.811Z,1.03
2023-01-20T13:33:33.491Z,0.98
2023-01-20T13:36:02.014Z,0.98
2023-01-20T13:38:33.039Z,0.97
2023-01-20T13:41:03.484Z,0.93
2023-01-20T13:43:32.808Z,0.91
2023-01-20T13:46:05.790Z,0.90
2023-01-20T13:48:34.246Z,0.86
2023-01-20T13:51:26.965Z,0.83
2023-01-20T13:53:53.562Z,0.85
2023-01-20T13:56:33.666Z,0.85
2023-01-20T13:59:00.240Z,0.85
2023-01-20T14:01:27.897Z,0.84
2023-01-20T14:04:03.737Z,0.84
2023-01-20T14:06:33.038Z,0.84
2023-01-20T14:09:01.403Z,0.85
2023-01-20T14:11:29.662Z,0.83
2023-01-20T14:14:07.545Z,0.84
2023-01-20T14:16:41.199Z,0.85
2023-01-20T14:19:19.932Z,0.83
2023-01-20T14:21:53.128Z,0.83
2023-01-20T14:24:43.757Z,0.82
2023-01-20T14:27:28.286Z,0.80
2023-01-20T14:29:56.840Z,0.79
2023-01-20T14:32:35.197Z,0.78
2023-01-20T14:35:04.294Z,0.76
2023-01-20T14:37:38.916Z,0.74
2023-01-20T14:40:32.452Z,0.76
2023-01-20T14:43:07.836Z,0.80
2023-01-20T14:45:36.827Z,0.84
2023-01-20T14:48:05.220Z,0.85
2023-01-20T14:50:31.746Z,0.87
2023-01-20T14:52:58.180Z,0.86
2023-01-20T14:55:35.896Z,0.87
2023-01-20T14:58:18.708Z,0.89
2023-01-20T15:00:49.921Z,0.90
2023-01-20T15:03:21.841Z,0.90
2023-01-20T15:05:59.145Z,0.93
2023-01-20T15:08:34.691Z,0.93
2023-01-20T15:11:21.650Z,0.94
2023-01-20T15:13:51.104Z,0.95
2023-01-20T15:16:36.995Z,0.97
2023-01-20T15:19:15.592Z,0.97
2023-01-20T15:21:45.925Z,0.99
2023-01-20T15:24:15.128Z,1.02
2023-01-20T15:26:42.085Z,1.04
2023-01-20T15:29:21.913Z,1.04
2023-01-20T15:31:49.194Z,1.03
2023-01-20T15:34:15.734Z,1.04
2023-01-20T15:36:43.983Z,1.07
2023-01-20T15:39:18.991Z,1.07
2023-01-20T15:41:46.549Z,1.08
2023-01-20T15:44:12.927Z,1.08
2023-01-20T15:46:40.453Z,1.08
2023-01-20T15:49:11.676Z,1.07
2023-01-20T15:51:38.719Z,1.07
2023-01-20T15:54:07.368Z,1.09
2023-01-20T15:56:35.227Z,1.13
2023-01-20T15:59:02.190Z,1.13
2023-01-20T16:01:29.504Z,1.15
2023-01-20T16:03:57.443Z,1.14
2023-01-20T16:06:30.411Z,1.15
2023-01-20T16:08:57.819Z,1.15
2023-01-20T16:11:24.284Z,1.16
2023-01-20T16:13:50.683Z,1.18
2023-01-20T16:16:19.325Z,1.18
2023-01-20T16:18:46.296Z,1.22
2023-01-20T16:21:15.211Z,1.20
2023-01-20T16:23:42.141Z,1.20
2023-01-20T16:26:23.516Z,1.19
2023-01-20T16:28:51.648Z,1.18
2023-01-20T16:31:19.174Z,1.17
2023-01-20T16:33:45.945Z,1.16
2023-01-20T16:36:15.016Z,1.20
2023-01-20T16:38:42.417Z,1.22
2023-01-20T16:41:21.672Z,1.23
2023-01-20T16:43:48.808Z,1.21
2023-01-20T16:46:17.686Z,1.20
2023-01-20T16:48:44.144Z,1.20
2023-01-20T16:51:16.788Z,1.19
2023-01-20T16:53:43.270Z,1.19
2023-01-20T16:56:19.605Z,1.18
2023-01-20T16:58:51.613Z,1.15
2023-01-20T17:01:23.438Z,1.14
2023-01-20T17:03:52.252Z,1.13
2023-01-20T17:06:21.244Z,1.16
2023-01-20T17:08:49.677Z,1.09
2023-01-20T17:11:28.128Z,1.04
2023-01-20T17:13:55.608Z,1.03
2023-01-20T17:16:22.991Z,1.00
2023-01-20T17:18:50.897Z,0.93
2023-01-20T17:21:19.367Z,0.88
2023-01-20T17:23:50.271Z,0.86
2023-01-20T17:26:16.784Z,0.80
2023-01-20T17:28:46.580Z,0.78
2023-01-20T17:31:13.890Z,0.76
2023-01-20T17:33:46.205Z,0.68
2023-01-20T17:36:13.072Z,0.59
2023-01-20T17:38:42.321Z,0.56
2023-01-20T17:41:10.177Z,0.48
2023-01-20T17:43:38.926Z,0.46
2023-01-20T17:46:29.560Z,0.33
2023-01-20T17:48:56.948Z,0.17
2023-01-20T17:51:25.443Z,0.11
2023-01-20T17:53:51.937Z,-0.01
2023-01-20T17:56:20.354Z,-0.12
2023-01-20T17:58:47.427Z,-0.14
2023-01-20T18:01:21.078Z,-0.14
2023-01-20T18:03:49.666Z,-0.19
2023-01-20T18:06:19.273Z,-0.23
2023-01-20T18:08:52.433Z,-0.25
2023-01-20T18:11:21.536Z,-0.29
2023-01-20T18:13:50.222Z,-0.29
2023-01-20T18:16:18.866Z,-0.32
2023-01-20T18:18:47.116Z,-0.37
2023-01-20T18:21:13.524Z,-0.39
2023-01-20T18:23:41.144Z,-0.39
2023-01-20T18:26:09.610Z,-0.44
2023-01-20T18:28:36.800Z,-0.46
2023-01-20T18:31:09.745Z,-0.46
2023-01-20T18:33:43.980Z,-0.50
2023-01-20T18:36:14.781Z,-0.56
2023-01-20T18:38:44.919Z,-0.60
2023-01-20T18:41:13.136Z,-0.62
2023-01-20T18:43:40.446Z,-0.63
2023-01-20T18:46:08.589Z,-0.66
2023-01-20T18:48:39.646Z,-0.61
2023-01-20T18:51:07.620Z,-0.64
2023-01-20T18:53:34.158Z,-0.62
2023-01-20T18:56:08.740Z,-0.60
2023-01-20T18:58:37.384Z,-0.65
2023-01-20T19:01:12.141Z,-0.69
2023-01-20T19:03:39.740Z,-0.71
2023-01-20T19:06:21.686Z,-0.72
2023-01-20T19:08:48.687Z,-0.77
2023-01-20T19:11:20.763Z,-0.84
2023-01-20T19:13:51.142Z,-0.86
2023-01-20T19:16:19.115Z,-0.87
2023-01-20T19:18:51.698Z,-0.89
2023-01-20T19:21:18.319Z,-0.94
2023-01-20T19:23:51.838Z,-0.94
2023-01-20T19:26:26.172Z,-0.99
2023-01-20T19:29:02.305Z,-0.98
2023-01-20T19:31:34.984Z,-0.98
2023-01-20T19:34:01.793Z,-1.03
2023-01-20T19:36:28.231Z,-1.04
2023-01-20T19:38:54.987Z,-1.07
2023-01-20T19:41:25.594Z,-1.13
2023-01-20T19:43:57.417Z,-1.14
2023-01-20T19:46:26.634Z,-1.21
2023-01-20T19:48:54.495Z,-1.24
2023-01-20T19:51:21.104Z,-1.27
2023-01-20T19:53:50.117Z,-1.28
2023-01-20T19:56:19.315Z,-1.25
2023-01-20T19:58:47.227Z,-1.27
2023-01-20T20:01:22.605Z,-1.32
2023-01-20T20:03:51.804Z,-1.30
2023-01-20T20:06:23.188Z,-1.37
2023-01-20T20:08:50.603Z,-1.39
2023-01-20T20:11:17.115Z,-1.43
2023-01-20T20:13:43.539Z,-1.47
2023-01-20T20:16:10.235Z,-1.43
2023-01-20T20:18:36.659Z,-1.47
2023-01-20T20:21:04.754Z,-1.52
2023-01-20T20:23:31.149Z,-1.56
2023-01-20T20:25:57.642Z,-1.59
2023-01-20T20:28:25.283Z,-1.58
2023-01-20T20:30:52.834Z,-1.56
2023-01-20T20:33:19.723Z,-1.59
2023-01-20T20:35:46.341Z,-1.63
2023-01-20T20:38:12.741Z,-1.69
2023-01-20T20:40:39.226Z,-1.73
2023-01-20T20:43:05.604Z,-1.68
2023-01-20T20:45:32.136Z,-1.70
2023-01-20T20:47:58.545Z,-1.73
2023-01-20T20:50:25.282Z,-1.73
2023-01-20T20:52:52.607Z,-1.71
2023-01-20T20:55:19.215Z,-1.69
2023-01-20T20:57:45.666Z,-1.75
2023-01-20T21:00:12.630Z,-1.77
2023-01-20T21:02:39.723Z,-1.82
2023-01-20T21:05:07.616Z,-1.87
2023-01-20T21:07:34.296Z,-1.90
2023-01-20T21:10:00.893Z,-1.93
2023-01-20T21:12:27.334Z,-1.93
2023-01-20T21:14:53.699Z,-1.98
2023-01-20T21:17:20.108Z,-1.91
2023-01-20T21:19:52.124Z,-1.86
2023-01-20T21:22:19.821Z,-1.85
2023-01-20T21:24:46.176Z,-1.86
2023-01-20T21:27:13.276Z,-1.78
2023-01-20T21:29:39.644Z,-1.80
2023-01-20T21:32:06.078Z,-1.73
2023-01-20T21:34:32.481Z,-1.69
2023-01-20T21:36:59.573Z,-1.70
2023-01-20T21:39:25.967Z,-1.73
2023-01-20T21:41:52.332Z,-1.70
2023-01-20T21:44:32.985Z,-1.72
2023-01-20T21:47:04.825Z,-1.73
2023-01-20T21:49:50.132Z,-1.71
2023-01-20T21:52:37.864Z,-1.74
2023-01-20T21:55:05.159Z,-1.70
2023-01-20T21:57:32.662Z,-1.75
2023-01-20T21:59:59.926Z,-1.75
2023-01-20T22:02:29.689Z,-1.72
2023-01-20T22:04:56.364Z,-1.75
2023-01-20T22:07:23.305Z,-1.78
2023-01-20T22:09:49.868Z,-1.79
2023-01-20T22:12:16.437Z,-1.78
2023-01-20T22:14:43.019Z,-1.74
2023-01-20T22:17:10.871Z,-1.69
2023-01-20T22:19:37.866Z,-1.68
2023-01-20T22:22:05.006Z,-1.77
2023-01-20T22:24:31.639Z,-1.75
2023-01-20T22:26:58.303Z,-1.74
2023-01-20T22:29:25.205Z,-1.69
2023-01-20T22:31:53.249Z,-1.66
2023-01-20T22:34:20.261Z,-1.63
2023-01-20T22:36:46.912Z,-1.56
2023-01-20T22:39:14.482Z,-1.57
2023-01-20T22:41:41.013Z,-1.57
2023-01-20T22:44:08.105Z,-1.59
2023-01-20T22:46:34.487Z,-1.59
2023-01-20T22:49:00.925Z,-1.54
2023-01-20T22:51:29.714Z,-1.56
2023-01-20T22:53:58.126Z,-1.57
2023-01-20T22:56:27.853Z,-1.55
2023-01-20T22:58:56.519Z,-1.56
2023-01-20T23:01:25.749Z,-1.56
2023-01-20T23:03:57.046Z,-1.56
2023-01-20T23:06:24.444Z,-1.50
2023-01-20T23:08:50.862Z,-1.57
2023-01-20T23:11:18.974Z,-1.61
2023-01-20T23:13:46.705Z,-1.62
2023-01-20T23:16:17.457Z,-1.65
2023-01-20T23:18:45.619Z,-1.69
2023-01-20T23:21:12.473Z,-1.67
2023-01-20T23:23:39.273Z,-1.63
2023-01-20T23:26:12.103Z,-1.66
2023-01-20T23:28:38.552Z,-1.60
2023-01-20T23:31:07.378Z,-1.60
2023-01-20T23:33:34.448Z,-1.57
2023-01-20T23:36:08.616Z,-1.59
2023-01-20T23:38:35.085Z,-1.61
2023-01-20T23:41:03.151Z,-1.59
2023-01-20T23:43:30.789Z,-1.60
2023-01-20T23:46:02.233Z,-1.64
2023-01-20T23:48:29.421Z,-1.62
2023-01-20T23:50:59.606Z,-1.67
2023-01-20T23:53:27.307Z,-1.78
2023-01-20T23:56:01.639Z,-1.76
2023-01-20T23:58:28.434Z,-1.78
